createdAt,value
2019-05-18T00:00:09.173Z,83.99
2019-05-18T00:02:39.808Z,84.11
2019-05-18T00:05:10.801Z,84.53
2019-05-18T00:07:41.610Z,84.50
2019-05-18T00:10:13.351Z,84.33
2019-05-18T00:12:44.178Z,83.95
2019-05-18T00:15:14.779Z,84.46
2019-05-18T00:17:45.183Z,84.70
2019-05-18T00:20:16.421Z,85.01
2019-05-18T00:22:46.899Z,84.89
2019-05-18T00:25:17.345Z,85.08
2019-05-18T00:27:47.845Z,85.52
2019-05-18T00:30:18.322Z,85.06
2019-05-18T00:32:48.831Z,84.95
2019-05-18T00:35:19.387Z,84.63
2019-05-18T00:37:49.871Z,84.62
2019-05-18T00:40:20.480Z,85.18
2019-05-18T00:42:50.969Z,85.15
2019-05-18T00:45:21.384Z,85.53
2019-05-18T00:47:51.874Z,85.40
2019-05-18T00:50:22.350Z,85.54
2019-05-18T00:52:52.872Z,86.17
2019-05-18T00:55:23.361Z,86.66
2019-05-18T00:57:53.868Z,87.07
2019-05-18T01:00:24.620Z,86.86
2019-05-18T01:02:55.124Z,87.12
2019-05-18T01:05:25.662Z,87.17
2019-05-18T01:07:56.293Z,87.07
2019-05-18T01:10:26.766Z,87.29
2019-05-18T01:12:57.235Z,87.33
2019-05-18T01:15:27.848Z,87.43
2019-05-18T01:18:02.041Z,87.29
2019-05-18T01:20:30.827Z,87.39
2019-05-18T01:23:01.313Z,87.49
2019-05-18T01:25:31.841Z,87.52
2019-05-18T01:28:02.350Z,86.95
2019-05-18T01:30:33.008Z,87.12
2019-05-18T01:33:03.501Z,87.56
2019-05-18T01:35:33.954Z,87.62
2019-05-18T01:38:04.563Z,87.59
2019-05-18T01:40:35.218Z,88.03
2019-05-18T01:43:05.934Z,87.85
2019-05-18T01:45:36.842Z,88.15
2019-05-18T01:48:14.278Z,88.45
2019-05-18T01:50:39.624Z,89.19
2019-05-18T01:53:10.094Z,88.86
2019-05-18T01:55:40.569Z,88.51
2019-05-18T01:58:11.099Z,88.77
2019-05-18T02:00:41.583Z,88.56
2019-05-18T02:03:12.011Z,88.97
2019-05-18T02:05:42.548Z,89.01
2019-05-18T02:08:13.085Z,89.50
2019-05-18T02:10:43.828Z,89.13
2019-05-18T02:13:14.541Z,89.42
2019-05-18T02:15:44.993Z,89.77
2019-05-18T02:18:28.341Z,90.03
2019-05-18T02:20:47.749Z,90.08
2019-05-18T02:23:18.185Z,89.72
2019-05-18T02:25:48.673Z,89.23
2019-05-18T02:28:19.245Z,89.11
2019-05-18T02:30:49.728Z,89.42
2019-05-18T02:33:20.445Z,89.68
2019-05-18T02:35:51.155Z,89.88
2019-05-18T02:38:21.682Z,89.79
2019-05-18T02:40:52.182Z,89.91
2019-05-18T02:43:22.959Z,89.68
2019-05-18T02:45:53.448Z,90.20
2019-05-18T02:48:23.945Z,89.91
2019-05-18T02:50:54.404Z,89.73
2019-05-18T02:53:24.925Z,90.16
2019-05-18T02:55:55.420Z,89.93
2019-05-18T02:58:26.097Z,89.76
2019-05-18T03:00:56.531Z,90.01
2019-05-18T03:03:27.144Z,90.10
2019-05-18T03:05:57.628Z,90.25
2019-05-18T03:08:28.236Z,90.05
2019-05-18T03:10:58.927Z,90.65
2019-05-18T03:13:29.554Z,90.20
2019-05-18T03:15:59.988Z,90.62
2019-05-18T03:18:30.470Z,90.39
2019-05-18T03:21:01.134Z,90.39
2019-05-18T03:23:31.558Z,90.48
2019-05-18T03:26:02.051Z,90.98
2019-05-18T03:28:32.546Z,90.93
2019-05-18T03:31:02.966Z,90.60
2019-05-18T03:33:33.555Z,90.69
2019-05-18T03:36:04.156Z,90.23
2019-05-18T03:38:34.720Z,90.40
2019-05-18T03:41:05.216Z,90.52
2019-05-18T03:43:35.955Z,90.09
2019-05-18T03:46:06.408Z,89.97
2019-05-18T03:48:36.913Z,90.99
2019-05-18T03:51:08.096Z,90.83
2019-05-18T03:53:38.592Z,90.98
2019-05-18T03:56:09.053Z,91.35
2019-05-18T03:58:39.888Z,91.08
2019-05-18T04:01:10.418Z,90.74
2019-05-18T04:03:40.968Z,90.80
2019-05-18T04:06:11.410Z,90.84
2019-05-18T04:08:41.942Z,90.92
2019-05-18T04:11:12.419Z,91.06
2019-05-18T04:13:42.873Z,90.75
2019-05-18T04:16:13.390Z,91.08
2019-05-18T04:18:44.032Z,91.39
2019-05-18T04:21:14.596Z,91.19
2019-05-18T04:23:45.140Z,91.00
2019-05-18T04:26:15.665Z,91.21
2019-05-18T04:28:46.288Z,91.15
2019-05-18T04:31:16.761Z,91.06
2019-05-18T04:33:47.353Z,91.16
2019-05-18T04:36:17.813Z,91.16
2019-05-18T04:38:48.474Z,91.16
2019-05-18T04:41:18.968Z,91.33
2019-05-18T04:43:49.522Z,91.42
2019-05-18T04:46:20.388Z,91.50
2019-05-18T04:48:50.862Z,91.68
2019-05-18T04:51:21.512Z,91.57
2019-05-18T04:53:52.062Z,91.54
2019-05-18T04:56:22.503Z,91.79
2019-05-18T04:58:53.042Z,91.92
2019-05-18T05:01:23.568Z,91.89
2019-05-18T05:03:54.018Z,92.26
2019-05-18T05:06:24.446Z,92.67
2019-05-18T05:08:55.007Z,92.39
2019-05-18T05:11:25.531Z,92.36
2019-05-18T05:13:56.009Z,92.42
2019-05-18T05:16:26.564Z,92.67
2019-05-18T05:18:56.999Z,93.01
2019-05-18T05:21:27.447Z,92.84
2019-05-18T05:23:57.925Z,92.90
2019-05-18T05:26:28.412Z,93.09
2019-05-18T05:28:58.939Z,92.83
2019-05-18T05:31:29.470Z,92.45
2019-05-18T05:33:59.951Z,92.23
2019-05-18T05:36:30.444Z,92.67
2019-05-18T05:39:00.937Z,92.64
2019-05-18T05:41:31.458Z,92.50
2019-05-18T05:44:01.910Z,92.64
2019-05-18T05:46:32.396Z,92.81
2019-05-18T05:49:02.978Z,92.90
2019-05-18T05:51:33.568Z,92.81
2019-05-18T05:54:03.979Z,93.01
2019-05-18T05:56:34.452Z,93.12
2019-05-18T05:59:04.986Z,92.95
2019-05-18T06:01:35.426Z,92.99
2019-05-18T06:04:05.938Z,93.22
2019-05-18T06:06:36.442Z,93.16
2019-05-18T06:09:08.855Z,92.80
2019-05-18T06:11:39.348Z,92.59
2019-05-18T06:14:09.830Z,92.36
2019-05-18T06:16:41.965Z,92.12
2019-05-18T06:19:13.396Z,92.19
2019-05-18T06:21:43.877Z,92.53
2019-05-18T06:24:14.349Z,92.12
2019-05-18T06:26:44.883Z,91.97
2019-05-18T06:29:15.399Z,92.31
2019-05-18T06:31:45.880Z,91.53
2019-05-18T06:34:16.371Z,91.23
2019-05-18T06:36:46.834Z,91.06
2019-05-18T06:39:17.324Z,91.16
2019-05-18T06:41:47.793Z,90.66
2019-05-18T06:44:18.400Z,90.06
2019-05-18T06:46:48.892Z,89.84
2019-05-18T06:49:19.403Z,90.29
2019-05-18T06:51:49.879Z,89.37
2019-05-18T06:54:20.560Z,89.38
2019-05-18T06:56:52.700Z,88.19
2019-05-18T06:59:24.493Z,88.37
2019-05-18T07:01:55.068Z,88.36
2019-05-18T07:04:25.582Z,88.10
2019-05-18T07:06:56.010Z,87.65
2019-05-18T07:09:26.593Z,87.73
2019-05-18T07:11:57.146Z,87.33
2019-05-18T07:14:27.616Z,87.28
2019-05-18T07:16:58.115Z,86.78
2019-05-18T07:19:28.602Z,86.05
2019-05-18T07:21:59.543Z,86.06
2019-05-18T07:24:30.198Z,85.50
2019-05-18T07:27:01.808Z,84.81
2019-05-18T07:29:32.346Z,84.18
2019-05-18T07:32:02.972Z,84.21
2019-05-18T07:34:33.462Z,82.54
2019-05-18T07:37:04.417Z,82.65
2019-05-18T07:39:36.172Z,80.48
2019-05-18T07:42:06.795Z,81.21
2019-05-18T07:44:37.276Z,80.19
2019-05-18T07:47:07.834Z,79.39
2019-05-18T07:49:38.268Z,78.31
2019-05-18T07:52:08.769Z,77.55
2019-05-18T07:54:39.474Z,76.93
2019-05-18T07:57:09.969Z,77.29
2019-05-18T07:59:40.487Z,76.68
2019-05-18T08:02:11.033Z,74.45
2019-05-18T08:04:41.543Z,75.26
2019-05-18T08:07:12.071Z,73.85
2019-05-18T08:09:42.996Z,72.63
2019-05-18T08:12:13.532Z,72.78
2019-05-18T08:14:44.089Z,71.52
2019-05-18T08:17:14.586Z,69.41
2019-05-18T08:19:45.143Z,65.01
2019-05-18T08:22:15.612Z,64.58
2019-05-18T08:24:46.072Z,66.45
2019-05-18T08:27:16.690Z,65.00
2019-05-18T08:29:47.208Z,67.32
2019-05-18T08:32:20.335Z,65.16
2019-05-18T08:34:51.153Z,63.69
2019-05-18T08:37:21.696Z,63.38
2019-05-18T08:39:52.824Z,63.90
2019-05-18T08:42:23.398Z,61.26
2019-05-18T08:44:54.031Z,60.88
2019-05-18T08:47:24.764Z,61.27
2019-05-18T08:49:55.586Z,60.23
2019-05-18T08:52:26.677Z,60.55
2019-05-18T08:54:57.272Z,61.90
2019-05-18T08:57:27.762Z,61.58
2019-05-18T08:59:58.290Z,60.13
2019-05-18T09:02:28.740Z,58.87
2019-05-18T09:04:59.440Z,59.30
2019-05-18T09:07:30.000Z,56.50
2019-05-18T09:10:00.496Z,56.20
2019-05-18T09:12:31.239Z,57.95
2019-05-18T09:15:02.063Z,56.75
2019-05-18T09:17:32.854Z,55.85
2019-05-18T09:20:03.352Z,57.76
2019-05-18T09:22:34.075Z,60.63
2019-05-18T09:25:05.034Z,59.49
2019-05-18T09:27:35.999Z,58.81
2019-05-18T09:30:07.907Z,57.85
2019-05-18T09:32:38.694Z,57.21
2019-05-18T09:35:11.807Z,57.38
2019-05-18T09:37:42.259Z,56.36
2019-05-18T09:40:12.923Z,54.79
2019-05-18T09:42:43.976Z,55.73
2019-05-18T09:45:15.428Z,54.63
2019-05-18T09:47:46.368Z,52.61
2019-05-18T09:50:17.022Z,51.19
2019-05-18T09:52:47.593Z,51.15
2019-05-18T09:55:19.124Z,52.92
2019-05-18T09:57:49.637Z,53.23
2019-05-18T10:00:21.194Z,50.58
2019-05-18T10:02:51.764Z,50.55
2019-05-18T10:05:22.401Z,50.24
2019-05-18T10:07:52.809Z,49.98
2019-05-18T10:10:23.506Z,49.45
2019-05-18T10:12:54.463Z,49.71
2019-05-18T10:15:25.474Z,49.35
2019-05-18T10:17:56.077Z,48.73
2019-05-18T10:20:26.595Z,48.29
2019-05-18T10:23:11.739Z,47.76
2019-05-18T10:25:30.648Z,47.89
2019-05-18T10:28:01.136Z,47.42
2019-05-18T10:30:32.589Z,46.65
2019-05-18T10:33:03.292Z,46.11
2019-05-18T10:35:33.865Z,46.01
2019-05-18T10:38:04.527Z,46.39
2019-05-18T10:40:35.010Z,45.32
2019-05-18T10:43:05.552Z,42.08
2019-05-18T10:45:36.348Z,41.44
2019-05-18T10:48:07.294Z,41.70
2019-05-18T10:50:37.787Z,41.60
2019-05-18T10:53:08.252Z,40.71
2019-05-18T10:55:38.841Z,40.06
2019-05-18T10:58:09.272Z,39.54
2019-05-18T11:00:39.767Z,39.91
2019-05-18T11:03:10.434Z,40.14
2019-05-18T11:05:40.877Z,40.13
2019-05-18T11:08:11.481Z,40.46
2019-05-18T11:10:41.969Z,41.54
2019-05-18T11:13:12.529Z,40.83
2019-05-18T11:15:43.101Z,39.98
2019-05-18T11:18:13.876Z,39.92
2019-05-18T11:20:44.560Z,40.25
2019-05-18T11:23:15.248Z,39.09
2019-05-18T11:25:45.797Z,38.77
2019-05-18T11:28:16.447Z,39.58
2019-05-18T11:30:47.296Z,41.04
2019-05-18T11:33:17.807Z,41.02
2019-05-18T11:35:48.488Z,41.89
2019-05-18T11:38:19.181Z,43.08
2019-05-18T11:40:49.736Z,42.42
2019-05-18T11:43:20.214Z,41.65
2019-05-18T11:45:50.742Z,42.03
2019-05-18T11:48:21.344Z,41.04
2019-05-18T11:50:51.803Z,41.04
2019-05-18T11:53:22.287Z,42.50
2019-05-18T11:55:53.116Z,42.07
2019-05-18T11:58:23.622Z,41.37
2019-05-18T12:00:54.189Z,40.31
2019-05-18T12:03:25.252Z,40.44
2019-05-18T12:05:55.744Z,41.01
2019-05-18T12:08:26.442Z,42.21
2019-05-18T12:10:56.914Z,42.45
2019-05-18T12:13:27.359Z,43.91
2019-05-18T12:15:57.872Z,46.27
2019-05-18T12:18:29.023Z,47.69
2019-05-18T12:20:59.809Z,47.49
2019-05-18T12:23:30.404Z,47.49
2019-05-18T12:26:01.062Z,44.47
2019-05-18T12:28:31.655Z,41.64
2019-05-18T12:31:02.311Z,41.76
2019-05-18T12:33:32.931Z,42.25
2019-05-18T12:36:03.984Z,41.95
2019-05-18T12:38:34.586Z,41.91
2019-05-18T12:41:05.544Z,41.85
2019-05-18T12:43:36.063Z,42.09
2019-05-18T12:46:06.575Z,41.34
2019-05-18T12:48:37.358Z,42.03
2019-05-18T12:51:08.111Z,42.36
2019-05-18T12:53:38.625Z,42.29
2019-05-18T12:56:10.806Z,43.13
2019-05-18T12:58:41.314Z,43.69
2019-05-18T13:01:12.003Z,44.87
2019-05-18T13:03:42.677Z,44.18
2019-05-18T13:06:13.185Z,44.12
2019-05-18T13:08:43.643Z,43.95
2019-05-18T13:11:14.190Z,47.25
2019-05-18T13:13:44.736Z,48.09
2019-05-18T13:16:15.221Z,48.62
2019-05-18T13:18:45.816Z,47.32
2019-05-18T13:21:16.347Z,45.25
2019-05-18T13:23:46.861Z,44.00
2019-05-18T13:26:17.392Z,44.15
2019-05-18T13:28:48.088Z,44.40
2019-05-18T13:31:18.545Z,44.99
2019-05-18T13:33:49.400Z,44.98
2019-05-18T13:36:20.724Z,47.44
2019-05-18T13:38:51.296Z,44.56
2019-05-18T13:41:21.869Z,43.18
2019-05-18T13:43:52.641Z,43.54
2019-05-18T13:46:23.162Z,43.13
2019-05-18T13:48:53.960Z,43.18
2019-05-18T13:51:24.774Z,40.89
2019-05-18T13:53:55.559Z,42.50
2019-05-18T13:56:26.181Z,43.41
2019-05-18T13:58:56.707Z,43.81
2019-05-18T14:01:27.182Z,44.15
2019-05-18T14:03:57.668Z,43.72
2019-05-18T14:06:28.266Z,43.71
2019-05-18T14:08:58.758Z,44.28
2019-05-18T14:11:29.217Z,43.63
2019-05-18T14:13:59.798Z,44.03
2019-05-18T14:16:30.613Z,43.56
2019-05-18T14:19:01.419Z,44.02
2019-05-18T14:21:31.925Z,44.14
2019-05-18T14:24:21.703Z,43.76
2019-05-18T14:26:52.313Z,42.92
2019-05-18T14:29:22.796Z,42.79
2019-05-18T14:31:53.533Z,44.30
2019-05-18T14:34:24.117Z,44.79
2019-05-18T14:36:54.567Z,43.61
2019-05-18T14:39:25.093Z,41.99
2019-05-18T14:41:55.621Z,44.08
2019-05-18T14:44:26.056Z,44.24
2019-05-18T14:46:56.623Z,44.04
2019-05-18T14:49:27.475Z,43.96
2019-05-18T14:51:58.015Z,44.46
2019-05-18T14:54:28.872Z,43.60
2019-05-18T14:56:59.484Z,45.80
2019-05-18T14:59:30.240Z,44.91
2019-05-18T15:02:01.167Z,44.58
2019-05-18T15:04:31.711Z,46.24
2019-05-18T15:07:02.334Z,45.37
2019-05-18T15:09:33.010Z,44.15
2019-05-18T15:12:03.711Z,44.37
2019-05-18T15:14:34.219Z,44.97
2019-05-18T15:17:04.759Z,45.21
2019-05-18T15:19:35.407Z,44.33
2019-05-18T15:22:05.985Z,45.46
2019-05-18T15:24:36.515Z,45.53
2019-05-18T15:27:07.021Z,46.07
2019-05-18T15:29:37.532Z,46.56
2019-05-18T15:32:07.952Z,46.46
2019-05-18T15:34:38.593Z,46.69
2019-05-18T15:37:09.409Z,48.38
2019-05-18T15:39:39.925Z,47.75
2019-05-18T15:42:10.608Z,47.39
2019-05-18T15:44:41.149Z,47.79
2019-05-18T15:47:11.639Z,48.33
2019-05-18T15:49:42.291Z,48.16
2019-05-18T15:52:12.815Z,48.42
2019-05-18T15:54:43.499Z,49.31
2019-05-18T15:57:14.153Z,50.77
2019-05-18T15:59:44.660Z,50.14
2019-05-18T16:02:16.225Z,50.41
2019-05-18T16:04:46.775Z,50.22
2019-05-18T16:07:17.388Z,50.65
2019-05-18T16:09:47.843Z,50.64
2019-05-18T16:12:18.423Z,50.08
2019-05-18T16:14:48.930Z,50.40
2019-05-18T16:17:20.330Z,50.42
2019-05-18T16:19:50.929Z,50.73
2019-05-18T16:22:21.508Z,50.92
2019-05-18T16:24:52.005Z,51.31
2019-05-18T16:27:22.639Z,51.96
2019-05-18T16:29:53.113Z,51.52
2019-05-18T16:32:23.763Z,51.03
2019-05-18T16:34:54.430Z,51.55
2019-05-18T16:37:24.937Z,51.01
2019-05-18T16:39:55.494Z,51.83
2019-05-18T16:42:25.955Z,52.01
2019-05-18T16:44:56.500Z,51.44
2019-05-18T16:47:27.038Z,52.02
2019-05-18T16:49:57.523Z,53.33
2019-05-18T16:52:28.088Z,54.17
2019-05-18T16:54:59.468Z,52.97
2019-05-18T16:57:29.966Z,53.44
2019-05-18T17:00:00.500Z,54.40
2019-05-18T17:02:32.122Z,55.12
2019-05-18T17:05:03.363Z,54.74
2019-05-18T17:07:34.000Z,53.93
2019-05-18T17:10:04.685Z,53.55
2019-05-18T17:12:35.477Z,55.22
2019-05-18T17:15:06.474Z,56.29
2019-05-18T17:17:37.152Z,57.62
2019-05-18T17:20:09.343Z,57.82
2019-05-18T17:22:39.981Z,58.16
2019-05-18T17:25:12.696Z,58.83
2019-05-18T17:27:43.932Z,59.24
2019-05-18T17:30:14.439Z,58.88
2019-05-18T17:32:45.144Z,58.98
2019-05-18T17:35:15.867Z,59.65
2019-05-18T17:37:46.447Z,59.48
2019-05-18T17:40:17.334Z,60.68
2019-05-18T17:42:47.816Z,60.91
2019-05-18T17:45:18.631Z,60.24
2019-05-18T17:47:49.390Z,59.82
2019-05-18T17:50:20.241Z,58.85
2019-05-18T17:52:51.286Z,58.56
2019-05-18T17:55:23.540Z,60.05
2019-05-18T17:57:54.308Z,60.78
2019-05-18T18:00:24.897Z,60.27
2019-05-18T18:02:55.452Z,60.27
2019-05-18T18:05:25.890Z,61.73
2019-05-18T18:07:57.101Z,61.53
2019-05-18T18:10:27.659Z,61.17
2019-05-18T18:12:59.225Z,62.10
2019-05-18T18:15:29.754Z,62.61
2019-05-18T18:18:00.309Z,62.32
2019-05-18T18:20:30.880Z,61.99
2019-05-18T18:23:01.476Z,62.10
2019-05-18T18:25:32.008Z,61.81
2019-05-18T18:28:03.521Z,62.04
2019-05-18T18:30:34.019Z,62.52
2019-05-18T18:33:04.566Z,63.14
2019-05-18T18:35:35.188Z,63.23
2019-05-18T18:38:05.675Z,63.81
2019-05-18T18:40:36.282Z,64.57
2019-05-18T18:43:06.957Z,65.16
2019-05-18T18:45:37.508Z,65.30
2019-05-18T18:48:08.024Z,64.96
2019-05-18T18:50:38.485Z,64.39
2019-05-18T18:53:09.002Z,64.61
2019-05-18T18:55:39.491Z,64.77
2019-05-18T18:58:10.231Z,65.29
2019-05-18T19:00:40.771Z,64.58
2019-05-18T19:03:11.225Z,63.51
2019-05-18T19:05:41.722Z,64.01
2019-05-18T19:08:12.364Z,64.83
2019-05-18T19:10:42.896Z,64.28
2019-05-18T19:13:13.984Z,65.28
2019-05-18T19:15:45.041Z,63.86
2019-05-18T19:18:15.736Z,63.87
2019-05-18T19:20:46.445Z,64.86
2019-05-18T19:23:17.016Z,65.39
2019-05-18T19:25:47.578Z,65.29
2019-05-18T19:28:18.112Z,65.60
2019-05-18T19:30:48.721Z,64.60
2019-05-18T19:33:19.733Z,65.20
2019-05-18T19:35:50.372Z,65.64
2019-05-18T19:38:20.894Z,65.32
2019-05-18T19:40:51.427Z,65.94
2019-05-18T19:43:21.933Z,65.61
2019-05-18T19:45:52.412Z,66.13
2019-05-18T19:48:22.992Z,66.64
2019-05-18T19:50:53.467Z,67.73
2019-05-18T19:53:24.062Z,67.79
2019-05-18T19:55:54.619Z,68.52
2019-05-18T19:58:25.136Z,69.28
2019-05-18T20:00:55.711Z,69.28
2019-05-18T20:03:26.297Z,69.28
2019-05-18T20:05:56.783Z,69.95
2019-05-18T20:08:27.321Z,69.79
2019-05-18T20:10:57.909Z,69.96
2019-05-18T20:13:28.406Z,69.14
2019-05-18T20:15:58.884Z,69.56
2019-05-18T20:18:29.396Z,69.75
2019-05-18T20:20:59.930Z,70.69
2019-05-18T20:23:30.375Z,71.43
2019-05-18T20:26:00.883Z,71.79
2019-05-18T20:28:31.659Z,72.29
2019-05-18T20:31:02.404Z,72.20
2019-05-18T20:33:33.054Z,71.87
2019-05-18T20:36:04.291Z,71.92
2019-05-18T20:38:34.729Z,71.63
2019-05-18T20:41:05.353Z,72.55
2019-05-18T20:43:36.177Z,72.39
2019-05-18T20:46:06.806Z,72.49
2019-05-18T20:48:37.326Z,72.59
2019-05-18T20:51:08.215Z,72.79
2019-05-18T20:53:40.995Z,73.55
2019-05-18T20:56:11.047Z,74.01
2019-05-18T20:58:41.599Z,73.99
2019-05-18T21:01:12.086Z,74.07
2019-05-18T21:03:42.547Z,74.42
2019-05-18T21:06:13.137Z,74.54
2019-05-18T21:08:43.652Z,74.14
2019-05-18T21:11:15.022Z,74.64
2019-05-18T21:13:45.521Z,74.81
2019-05-18T21:16:16.131Z,74.67
2019-05-18T21:18:46.650Z,74.72
2019-05-18T21:21:17.167Z,75.04
2019-05-18T21:23:47.880Z,74.27
2019-05-18T21:26:18.823Z,73.78
2019-05-18T21:28:56.426Z,73.21
2019-05-18T21:31:21.476Z,72.82
2019-05-18T21:33:51.975Z,72.77
2019-05-18T21:36:22.531Z,73.55
2019-05-18T21:38:53.200Z,74.29
2019-05-18T21:41:23.667Z,74.30
2019-05-18T21:43:54.169Z,73.39
2019-05-18T21:46:24.745Z,73.56
2019-05-18T21:48:55.211Z,73.92
2019-05-18T21:51:25.674Z,74.11
2019-05-18T21:53:56.179Z,74.56
2019-05-18T21:56:26.657Z,74.74
2019-05-18T21:59:10.714Z,74.97
2019-05-18T22:01:29.440Z,75.04
2019-05-18T22:03:59.917Z,74.81
2019-05-18T22:06:30.353Z,74.93
2019-05-18T22:09:00.809Z,75.10
2019-05-18T22:11:31.325Z,74.70
2019-05-18T22:14:02.075Z,74.75
2019-05-18T22:16:32.577Z,74.90
2019-05-18T22:19:03.078Z,75.48
2019-05-18T22:21:33.603Z,75.42
2019-05-18T22:24:04.212Z,75.22
2019-05-18T22:26:34.670Z,75.04
2019-05-18T22:29:05.158Z,75.19
2019-05-18T22:31:35.729Z,74.50
2019-05-18T22:34:06.203Z,74.61
2019-05-18T22:36:36.871Z,74.58
2019-05-18T22:39:08.075Z,74.59
2019-05-18T22:41:38.709Z,74.43
2019-05-18T22:44:09.499Z,74.74
2019-05-18T22:46:40.109Z,75.32
2019-05-18T22:49:10.761Z,75.15
2019-05-18T22:51:41.267Z,75.52
2019-05-18T22:54:11.997Z,75.34
2019-05-18T22:56:42.688Z,75.58
2019-05-18T22:59:13.189Z,75.78
2019-05-18T23:01:43.973Z,76.93
2019-05-18T23:04:14.503Z,77.59
2019-05-18T23:06:45.485Z,77.68
2019-05-18T23:09:15.988Z,78.05
2019-05-18T23:11:46.613Z,78.39
2019-05-18T23:14:17.102Z,78.48
2019-05-18T23:16:47.594Z,78.58
2019-05-18T23:19:18.316Z,78.17
2019-05-18T23:21:48.756Z,78.16
2019-05-18T23:24:19.212Z,78.38
2019-05-18T23:26:49.869Z,78.51
2019-05-18T23:29:20.590Z,78.64
2019-05-18T23:31:51.146Z,78.64
2019-05-18T23:34:21.663Z,78.87
2019-05-18T23:36:52.148Z,79.22
2019-05-18T23:39:22.848Z,79.77
2019-05-18T23:41:53.686Z,80.08
2019-05-18T23:44:24.189Z,79.99
2019-05-18T23:46:54.942Z,80.51
2019-05-18T23:49:25.444Z,80.64
2019-05-18T23:51:56.731Z,80.65
2019-05-18T23:54:27.204Z,80.19
2019-05-18T23:56:57.671Z,79.86
2019-05-18T23:59:28.217Z,79.66
